Flight Track Log - Related Links

Times and Time Zones

All times are in EDT time to prevent confusion due to time zone crossing. See the USC105 flight status page for this flight to view local times or setup timezone preferences in your user account.

Time Position Orientation Groundspeed Altitude Reporting Facility
EDT Latitude Longitude Course Direction KTS MPH feet Rate Location/Type
Thu 05:48:32 AM 41.8833 -88.2500 143° Southeast 119 137 1,500  Level Chicago TRACON
Thu 05:49:32 AM 41.8500 -88.2167 143° Southeast 127 146 2,800 1,041 Climbing Chicago TRACON
Thu 05:50:10 AM 41.8417 -88.2069 139° Southeast 129 148 3,200 1,102 Climbing Chicago Center
Thu 05:51:10 AM 41.8128 -88.1747 140° Southeast 132 152 4,600 1,350 Climbing Chicago Center
Thu 05:52:10 AM 41.7831 -88.1469 145° Southeast 132 152 5,900 992 Climbing Chicago Center
Thu 05:53:11 AM 41.7867 -88.0864 85° East 169 194 6,600 496 Climbing Chicago Center
Thu 05:54:11 AM 41.7933 -88.0122 83° East 196 226 6,900 150 Climbing Chicago Center
Thu 05:55:11 AM 41.8061 -87.9283 78° East 218 251 6,900  Level Chicago Center
Thu 05:56:12 AM 41.8186 -87.8453 79° East 226 260 6,900  Level Chicago Center
Thu 05:56:32 AM 41.8167 -87.8000 93° East 225 259 6,900  Level Chicago TRACON
Thu 05:57:32 AM 41.8333 -87.7167 75° East 226 260 6,900  Level Chicago TRACON
Thu 05:58:32 AM 41.8500 -87.6333 75° East 227 261 6,900  Level Chicago TRACON
Thu 05:59:13 AM 41.8469 -87.5986 97° East 227 261 6,900  Level Chicago Center
Thu 06:00:15 AM 41.8561 -87.5014 83° East 221 254 6,900  Level Chicago Center
Thu 06:01:15 AM 41.8658 -87.4194 81° East 222 255 6,900  Level Chicago Center
Thu 06:02:15 AM 41.8742 -87.3364 82° East 224 258 6,900  Level Chicago Center
Thu 06:03:16 AM 41.8844 -87.2547 80° East 224 258 6,900  Level Chicago Center
Thu 06:04:16 AM 41.8950 -87.1722 80° East 226 260 6,900  Level Chicago Center
Thu 06:05:17 AM 41.9081 -87.0889 78° East 228 262 6,900 50 Level Chicago Center
Thu 06:06:17 AM 41.9164 -87.0047 82° East 228 262 7,000 50 Climbing Chicago Center
Thu 06:07:17 AM 41.9267 -86.9236 80° East 224 258 7,000  Level Chicago Center
Thu 06:08:19 AM 41.9353 -86.8422 82° East 221 254 7,000  Level Chicago Center
Thu 06:09:18 AM 41.9442 -86.7614 82° East 220 253 7,000  Level Chicago Center
Thu 06:10:19 AM 41.9525 -86.6833 82° East 219 252 7,000  Level Chicago Center
Thu 06:11:19 AM 41.9603 -86.6036 82° East 215 247 7,000  Level Chicago Center
Thu 06:12:20 AM 41.9686 -86.5228 82° East 219 252 7,000  Level Chicago Center
Thu 06:13:20 AM 41.9772 -86.4433 82° East 218 251 7,000  Level Chicago Center
Thu 06:14:20 AM 41.9861 -86.3642 81° East 216 249 7,000  Level Chicago Center
Thu 06:15:21 AM 41.9936 -86.2853 83° East 215 247 7,000  Level Chicago Center
Thu 06:16:21 AM 42.0017 -86.2050 82° East 216 249 7,000  Level Chicago Center
Thu 06:17:22 AM 42.0094 -86.1247 83° East 216 249 7,000  Level Chicago Center
Thu 06:18:22 AM 42.0183 -86.0456 81° East 215 247 7,000  Level Chicago Center
Thu 06:19:23 AM 42.0256 -85.9653 83° East 217 250 7,000  Level Chicago Center
Thu 06:20:23 AM 42.0339 -85.8833 82° East 220 253 7,000  Level Chicago Center
Thu 06:21:24 AM 42.0419 -85.8014 82° East 221 254 7,000  Level Chicago Center
Thu 06:22:24 AM 42.0497 -85.7214 83° East 218 251 7,000  Level Chicago Center
Thu 06:23:24 AM 42.0578 -85.6392 82° East 220 253 7,000  Level Chicago Center
Thu 06:24:25 AM 42.0653 -85.5572 83° East 220 253 7,000  Level Chicago Center
Thu 06:25:25 AM 42.0739 -85.4758 82° East 220 253 7,000  Level Chicago Center
Thu 06:26:26 AM 42.0811 -85.3939 83° East 220 253 7,000  Level Chicago Center
Thu 06:27:26 AM 42.0883 -85.3119 83° East 220 253 7,000  Level Chicago Center
Thu 06:28:27 AM 42.0967 -85.2308 82° East 220 253 7,000  Level Chicago Center
Thu 06:29:27 AM 42.1039 -85.1506 83° East 216 249 7,000  Level Chicago Center
Thu 06:30:27 AM 42.1111 -85.0700 83° East 216 249 7,000  Level Chicago Center
Thu 06:31:28 AM 42.1186 -84.9897 83° East 216 249 7,000  Level Chicago Center
Thu 06:32:28 AM 42.1258 -84.9083 83° East 218 251 7,000  Level Chicago Center
Thu 06:33:29 AM 42.1342 -84.8125 83° East 216 249 7,000  Level Chicago Center
Thu 06:34:30 AM 42.1411 -84.7319 83° East 217 250 7,000  Level Chicago Center
Thu 06:35:30 AM 42.1489 -84.6511 83° East 216 249 7,000 -198 Level Chicago Center
Thu 06:36:31 AM 42.1550 -84.5692 84° East 219 252 6,600 -568 Descending Chicago Center
Thu 06:37:05 AM 42.1597 -84.5158 83° East 231 266 6,100 -655 Descending FAA TRACON SMA TRACON (SMA)
Thu 06:37:26 AM 42.1617 -84.4889 84° East 233 268 6,000 -300 Descending FAA TRACON SMA TRACON (SMA)
Thu 06:37:45 AM 42.1642 -84.4622 83° East 233 268 5,900 -600 Descending FAA TRACON SMA TRACON (SMA)
Thu 06:38:06 AM 42.1672 -84.4294 83° East 230 265 5,600 -600 Descending FAA TRACON SMA TRACON (SMA)
Thu 06:38:25 AM 42.1694 -84.4031 84° East 231 266 5,500 -308 Descending FAA TRACON SMA TRACON (SMA)
Thu 06:38:45 AM 42.1717 -84.3767 84° East 230 265 5,400 -293 Descending FAA TRACON SMA TRACON (SMA)
Thu 06:39:06 AM 42.1744 -84.3447 83° East 225 259 5,300 -450 Descending FAA TRACON SMA TRACON (SMA)
Thu 06:39:25 AM 42.1769 -84.3197 82° East 222 255 5,100 -600 Descending FAA TRACON SMA TRACON (SMA)
Thu 06:39:46 AM 42.1789 -84.2950 84° East 219 252 4,900 -150 Descending FAA TRACON SMA TRACON (SMA)
Thu 06:40:05 AM 42.1814 -84.2647 84° East 214 246 5,000 154 Climbing FAA TRACON SMA TRACON (SMA)
Thu 06:40:25 AM 42.1833 -84.2408 84° East 210 242 5,000  Level FAA TRACON SMA TRACON (SMA)
Thu 06:40:46 AM 42.1853 -84.2175 84° East 206 237 5,000  Level FAA TRACON SMA TRACON (SMA)
Thu 06:41:05 AM 42.1869 -84.1886 86° East 203 234 5,000  Level FAA TRACON SMA TRACON (SMA)
Thu 06:41:26 AM 42.1886 -84.1658 84° East 201 231 5,000  Level FAA TRACON SMA TRACON (SMA)
Thu 06:41:45 AM 42.1914 -84.1381 82° East 202 232 5,000  Level FAA TRACON SMA TRACON (SMA)
Thu 06:42:05 AM 42.1933 -84.1147 84° East 201 231 5,000  Level FAA TRACON SMA TRACON (SMA)
Thu 06:42:26 AM 42.1950 -84.0917 84° East 202 232 5,000  Level FAA TRACON SMA TRACON (SMA)
Thu 06:42:45 AM 42.1975 -84.0628 83° East 202 232 5,000  Level FAA TRACON SMA TRACON (SMA)
Thu 06:43:06 AM 42.1994 -84.0394 84° East 202 232 5,000  Level FAA TRACON SMA TRACON (SMA)
Thu 06:43:26 AM 42.2011 -84.0167 84° East 201 231 5,000  Level FAA TRACON SMA TRACON (SMA)
Thu 06:43:45 AM 42.2033 -83.9936 83° East 200 230 5,000  Level FAA TRACON SMA TRACON (SMA)
Thu 06:44:06 AM 42.2058 -83.9650 83° East 199 229 5,000  Level FAA TRACON SMA TRACON (SMA)
Thu 06:44:25 AM 42.2075 -83.9422 84° East 199 229 5,000  Level FAA TRACON SMA TRACON (SMA)
Thu 06:44:46 AM 42.2097 -83.9164 83° East 198 228 5,000 -659 Level Cleveland Center
Thu 06:45:47 AM 42.2139 -83.8411 86° East 206 237 4,100 -783 Descending Cleveland Center
Thu 06:46:41 AM 42.2200 -83.7683 84° East 206 237 3,500 -730 Descending Cleveland Center
Thu 06:47:42 AM 42.2325 -83.6933 77° East 201 231 2,700 -639 Descending Cleveland Center
Thu 06:48:43 AM 42.2428 -83.6208 79° East 196 226 2,200 -571 Descending Cleveland Center
Thu 06:49:06 AM 42.2433 -83.5936 88° East 169 194 1,900 -977 Descending FAA TRACON SMA TRACON (SMA)
Thu 06:49:26 AM 42.2433 -83.5758 90° East 155 178 1,500 -1,077 Descending FAA TRACON SMA TRACON (SMA)
Thu 06:49:45 AM 42.2436 -83.5589 89° East 137 158 1,200 -900 Descending FAA TRACON SMA TRACON (SMA)
Thu 06:50:06 AM 42.2444 -83.5433 86° East 135 155 900 -450 Descending FAA TRACON SMA TRACON (SMA)
Thu 06:50:25 AM 42.2439 -83.5469 258° West 135 155 900  Level FAA TRACON SMA TRACON (SMA)
Thu 06:50:46 AM 42.2439 -83.5469 251° West 135 155 900  Level FAA TRACON SMA TRACON (SMA)
Thu 06:52:00 AM 42.2393 -83.5310 90° East  Level Estimated
Thu 06:59:00 AM 42.2393 -83.5310 90° East  Level Estimated

Login

Don't have an account? Register now (free) for customized features, flight alerts, and more!